createdAt,value
2022-10-03T00:01:19.196Z,3.57
2022-10-03T00:03:54.671Z,3.13
2022-10-03T00:06:33.002Z,3.47
2022-10-03T00:09:28.407Z,3.23
2022-10-03T00:12:06.959Z,3.33
2022-10-03T00:14:53.052Z,3.63
2022-10-03T00:17:46.435Z,3.50
2022-10-03T00:20:37.279Z,3.23
2022-10-03T00:23:18.936Z,3.20
2022-10-03T00:25:57.183Z,3.50
2022-10-03T00:29:03.893Z,3.00
2022-10-03T00:31:43.552Z,4.43
2022-10-03T00:34:28.093Z,3.40
2022-10-03T00:37:05.380Z,3.83
2022-10-03T00:39:55.362Z,3.67
2022-10-03T00:42:28.146Z,4.03
2022-10-03T00:45:33.975Z,4.33
2022-10-03T00:48:29.275Z,3.70
2022-10-03T00:51:13.499Z,3.80
2022-10-03T00:54:07.539Z,4.50
2022-10-03T00:57:05.597Z,3.47
2022-10-03T00:59:43.307Z,3.65
2022-10-03T01:02:36.194Z,3.73
2022-10-03T01:05:26.192Z,3.98
2022-10-03T01:08:33.246Z,4.03
2022-10-03T01:11:14.972Z,3.22
2022-10-03T01:14:04.410Z,3.60
2022-10-03T01:17:01.120Z,3.57
2022-10-03T01:19:51.668Z,3.30
2022-10-03T01:22:58.900Z,3.42
2022-10-03T01:29:09.396Z,3.98
2022-10-03T01:31:50.677Z,3.47
2022-10-03T01:34:25.904Z,4.10
2022-10-03T01:37:07.150Z,4.23
2022-10-03T01:39:39.933Z,3.43
2022-10-03T01:42:20.722Z,3.64
2022-10-03T01:45:05.957Z,3.92
2022-10-03T01:47:45.815Z,3.90
2022-10-03T01:50:21.153Z,3.30
2022-10-03T01:52:59.764Z,4.10
2022-10-03T01:55:51.936Z,3.07
2022-10-03T01:58:27.411Z,3.42
2022-10-03T02:01:11.831Z,3.47
2022-10-03T02:04:01.367Z,3.67
2022-10-03T02:06:53.629Z,3.43
2022-10-03T02:09:32.838Z,4.10
2022-10-03T02:12:17.697Z,3.30
2022-10-03T02:15:21.674Z,3.67
2022-10-03T02:18:00.420Z,3.45
2022-10-03T02:20:50.585Z,3.47
2022-10-03T02:23:36.193Z,3.37
2022-10-03T02:26:33.919Z,3.80
2022-10-03T02:29:33.384Z,3.43
2022-10-03T02:32:27.310Z,3.50
2022-10-03T02:35:23.866Z,3.60
2022-10-03T02:38:11.319Z,3.60
2022-10-03T02:40:48.247Z,3.75
2022-10-03T02:43:40.246Z,3.83
2022-10-03T02:46:47.672Z,3.50
2022-10-03T02:52:10.896Z,3.87
2022-10-03T02:54:43.687Z,3.80
2022-10-03T02:57:37.050Z,3.85
2022-10-03T03:00:42.514Z,4.07
2022-10-03T03:03:30.083Z,3.60
2022-10-03T03:06:30.980Z,3.03
2022-10-03T03:09:03.749Z,4.13
2022-10-03T03:11:54.262Z,3.20
2022-10-03T03:14:50.872Z,2.80
2022-10-03T03:17:33.577Z,3.27
2022-10-03T03:20:18.342Z,3.80
2022-10-03T03:23:16.615Z,3.57
2022-10-03T03:26:03.678Z,3.10
2022-10-03T03:28:50.593Z,3.80
2022-10-03T03:31:29.720Z,3.03
2022-10-03T03:34:25.477Z,3.13
2022-10-03T03:37:07.243Z,3.45
2022-10-03T03:39:42.633Z,3.73
2022-10-03T03:42:45.059Z,3.90
2022-10-03T03:45:42.932Z,3.17
2022-10-03T03:48:25.337Z,3.25
2022-10-03T03:51:11.524Z,3.47
2022-10-03T03:54:19.433Z,3.75
2022-10-03T03:57:15.998Z,3.60
2022-10-03T04:00:06.368Z,3.60
2022-10-03T04:02:55.428Z,3.43
2022-10-03T04:05:47.077Z,3.30
2022-10-03T04:08:25.906Z,3.22
2022-10-03T04:11:19.053Z,3.40
2022-10-03T04:14:24.769Z,3.97
2022-10-03T04:17:23.590Z,3.23
2022-10-03T04:20:01.978Z,3.87
2022-10-03T04:22:46.632Z,3.60
2022-10-03T04:25:44.581Z,3.83
2022-10-03T04:28:38.493Z,3.38
2022-10-03T04:31:29.136Z,3.00
2022-10-03T04:34:25.317Z,3.97
2022-10-03T04:37:03.677Z,2.97
2022-10-03T04:39:48.042Z,3.90
2022-10-03T04:42:21.182Z,3.80
2022-10-03T04:44:53.957Z,3.37
2022-10-03T04:47:35.593Z,3.57
2022-10-03T04:50:15.659Z,3.60
2022-10-03T04:53:17.199Z,3.80
2022-10-03T04:55:55.462Z,3.30
2022-10-03T04:58:46.657Z,3.43
2022-10-03T05:01:25.571Z,3.47
2022-10-03T05:04:01.235Z,3.23
2022-10-03T05:06:52.973Z,3.20
2022-10-03T05:09:28.856Z,3.83
2022-10-03T05:12:10.289Z,3.42
2022-10-03T05:15:07.022Z,3.93
2022-10-03T05:17:45.537Z,3.47
2022-10-03T05:20:37.337Z,4.00
2022-10-03T05:23:10.110Z,3.80
2022-10-03T05:26:10.775Z,3.43
2022-10-03T05:28:38.848Z,4.03
2022-10-03T05:31:34.109Z,3.60
2022-10-03T05:34:24.480Z,3.62
2022-10-03T05:36:59.942Z,3.70
2022-10-03T05:39:57.926Z,4.57
2022-10-03T05:42:55.324Z,4.20
2022-10-03T05:45:31.684Z,3.83
2022-10-03T05:48:15.900Z,4.20
2022-10-03T05:51:06.356Z,4.60
2022-10-03T05:54:10.812Z,4.70
2022-10-03T05:56:59.604Z,4.27
2022-10-03T05:59:35.750Z,3.80
2022-10-03T06:02:39.995Z,5.60
2022-10-03T06:05:18.625Z,4.30
2022-10-03T06:08:06.487Z,4.65
2022-10-03T06:10:49.420Z,3.97
2022-10-03T06:13:47.735Z,4.10
2022-10-03T06:16:45.638Z,3.92
2022-10-03T06:19:27.170Z,4.20
2022-10-03T06:22:18.930Z,4.30
2022-10-03T06:25:11.327Z,3.77
2022-10-03T06:28:03.267Z,3.93
2022-10-03T06:30:47.590Z,4.47
2022-10-03T06:33:54.655Z,4.35
2022-10-03T06:36:52.007Z,3.73
2022-10-03T06:39:33.785Z,4.30
2022-10-03T06:42:24.428Z,3.50
2022-10-03T06:45:03.959Z,3.80
2022-10-03T06:47:55.666Z,4.27
2022-10-03T06:50:28.444Z,4.47
2022-10-03T06:53:12.934Z,4.20
2022-10-03T06:55:51.524Z,3.93
2022-10-03T06:58:29.887Z,5.80
2022-10-03T07:01:32.694Z,4.43
2022-10-03T07:04:05.481Z,5.00
2022-10-03T07:06:56.261Z,5.20
2022-10-03T07:09:46.978Z,5.73
2022-10-03T07:12:29.967Z,5.07
2022-10-03T07:15:18.745Z,5.13
2022-10-03T07:18:15.122Z,6.58
2022-10-03T07:21:20.835Z,7.13
2022-10-03T07:24:12.421Z,6.27
2022-10-03T07:26:51.105Z,5.93
2022-10-03T07:29:39.934Z,6.93
2022-10-03T07:32:25.742Z,6.37
2022-10-03T07:35:10.163Z,6.37
2022-10-03T07:38:20.141Z,6.77
2022-10-03T07:40:58.613Z,8.35
2022-10-03T07:43:31.213Z,7.55
2022-10-03T07:46:32.852Z,7.03
2022-10-03T07:49:24.916Z,6.17
2022-10-03T07:52:07.103Z,7.03
2022-10-03T07:55:04.971Z,6.77
2022-10-03T07:57:58.522Z,6.40
2022-10-03T08:00:31.659Z,6.58
2022-10-03T08:03:14.416Z,7.23
2022-10-03T08:05:50.206Z,7.30
2022-10-03T08:08:48.703Z,7.97
2022-10-03T08:11:24.342Z,6.97
2022-10-03T08:14:23.042Z,6.93
2022-10-03T08:17:14.809Z,6.30
2022-10-03T08:19:56.091Z,6.20
2022-10-03T08:22:44.068Z,5.60
2022-10-03T08:28:28.104Z,6.08
2022-10-03T08:31:21.154Z,5.90
2022-10-03T08:34:26.781Z,6.27
2022-10-03T08:37:16.960Z,6.03
2022-10-03T08:40:10.548Z,5.57
2022-10-03T08:42:49.455Z,6.10
2022-10-03T08:45:27.834Z,5.13
2022-10-03T08:48:12.552Z,5.10
2022-10-03T08:51:07.669Z,6.00
2022-10-03T08:53:56.366Z,4.20
2022-10-03T08:56:46.041Z,4.47
2022-10-03T08:59:40.858Z,4.90
2022-10-03T09:02:35.134Z,4.53
2022-10-03T09:05:19.484Z,4.67
2022-10-03T09:08:11.948Z,6.00
2022-10-03T09:11:06.329Z,4.78
2022-10-03T09:14:11.982Z,4.03
2022-10-03T09:16:48.147Z,3.83
2022-10-03T09:25:11.376Z,3.08
2022-10-03T09:28:01.232Z,3.30
2022-10-03T09:31:02.544Z,3.50
2022-10-03T09:33:55.340Z,3.30
2022-10-03T09:36:33.772Z,3.05
2022-10-03T09:39:24.551Z,3.60
2022-10-03T09:42:13.479Z,2.53
2022-10-03T09:45:16.278Z,2.80
2022-10-03T09:48:05.522Z,6.00
2022-10-03T09:50:38.375Z,2.87
2022-10-03T09:53:31.580Z,2.30
2022-10-03T09:56:24.885Z,2.97
2022-10-03T09:59:30.616Z,2.20
2022-10-03T10:02:15.367Z,1.73
2022-10-03T10:05:21.280Z,1.77
2022-10-03T10:08:06.140Z,2.20
2022-10-03T10:11:07.278Z,2.80
2022-10-03T10:14:07.492Z,2.30
2022-10-03T10:17:09.228Z,2.60
2022-10-03T10:19:51.680Z,2.47
2022-10-03T10:22:27.113Z,2.67
2022-10-03T10:25:20.521Z,2.50
2022-10-03T10:28:14.537Z,2.47
2022-10-03T10:30:50.372Z,2.23
2022-10-03T10:33:45.090Z,2.17
2022-10-03T10:36:32.244Z,2.35
2022-10-03T10:39:38.021Z,2.40
2022-10-03T10:42:45.342Z,2.20
2022-10-03T10:45:50.536Z,1.80
2022-10-03T10:48:58.984Z,2.27
2022-10-03T10:51:42.259Z,2.05
2022-10-03T10:54:42.000Z,1.60
2022-10-03T10:57:17.206Z,2.13
2022-10-03T11:00:15.193Z,2.03
2022-10-03T11:03:20.841Z,2.03
2022-10-03T11:06:17.066Z,2.03
2022-10-03T11:09:12.246Z,1.80
2022-10-03T11:12:14.054Z,1.73
2022-10-03T11:14:52.569Z,1.30
2022-10-03T11:17:33.953Z,1.77
2022-10-03T11:20:39.540Z,1.27
2022-10-03T11:23:30.593Z,1.10
2022-10-03T11:26:25.474Z,1.40
2022-10-03T11:29:23.663Z,1.07
2022-10-03T11:32:18.503Z,1.10
2022-10-03T11:35:03.043Z,1.60
2022-10-03T11:37:38.634Z,1.40
2022-10-03T11:43:42.194Z,1.22
2022-10-03T11:46:43.907Z,0.83
2022-10-03T11:49:48.499Z,1.00
2022-10-03T11:52:35.788Z,1.75
2022-10-03T11:55:30.837Z,1.10
2022-10-03T11:58:24.429Z,1.30
2022-10-03T12:00:57.384Z,0.80
2022-10-03T12:03:33.123Z,1.10
2022-10-03T12:06:26.451Z,0.93
2022-10-03T12:09:14.149Z,0.83
2022-10-03T12:12:03.043Z,0.83
2022-10-03T12:14:38.360Z,0.83
2022-10-03T12:17:39.495Z,1.00
2022-10-03T12:20:27.921Z,1.12
2022-10-03T12:23:00.777Z,1.30
2022-10-03T12:25:36.715Z,1.00
2022-10-03T12:31:00.744Z,1.17
2022-10-03T12:33:54.383Z,1.40
2022-10-03T12:36:35.482Z,0.88
2022-10-03T12:39:18.819Z,0.97
2022-10-03T12:42:06.612Z,1.45
2022-10-03T12:44:59.676Z,1.60
2022-10-03T12:47:56.543Z,1.17
2022-10-03T12:50:43.082Z,0.80
2022-10-03T12:53:22.003Z,0.97
2022-10-03T12:56:13.987Z,1.10
2022-10-03T12:59:01.260Z,0.67
2022-10-03T13:01:36.446Z,0.78
2022-10-03T13:04:20.019Z,0.93
2022-10-03T13:07:04.143Z,0.90
2022-10-03T13:09:50.403Z,1.10
2022-10-03T13:12:31.632Z,1.07
2022-10-03T13:15:20.881Z,1.30
2022-10-03T13:17:59.588Z,1.20
2022-10-03T13:20:39.183Z,1.12
2022-10-03T13:23:28.124Z,1.27
2022-10-03T13:26:07.524Z,0.95
2022-10-03T13:28:46.393Z,0.80
2022-10-03T13:31:27.649Z,1.10
2022-10-03T13:34:00.692Z,1.22
2022-10-03T13:36:45.853Z,1.05
2022-10-03T13:39:25.914Z,1.27
2022-10-03T13:42:08.265Z,1.63
2022-10-03T13:44:48.775Z,1.00
2022-10-03T13:47:30.612Z,1.30
2022-10-03T13:50:04.575Z,1.12
2022-10-03T13:52:39.670Z,1.05
2022-10-03T13:55:20.923Z,1.10
2022-10-03T13:57:59.769Z,1.00
2022-10-03T14:00:32.574Z,1.62
2022-10-03T14:03:11.267Z,1.30
2022-10-03T14:05:55.799Z,1.20
2022-10-03T14:08:28.611Z,0.78
2022-10-03T14:11:15.770Z,1.10
2022-10-03T14:13:57.061Z,1.30
2022-10-03T14:16:32.879Z,1.30
2022-10-03T14:19:05.685Z,1.27
2022-10-03T14:21:59.191Z,1.17
2022-10-03T14:24:36.977Z,0.90
2022-10-03T14:27:29.399Z,1.50
2022-10-03T14:30:11.145Z,1.33
2022-10-03T14:33:08.894Z,1.37
2022-10-03T14:35:47.367Z,1.20
2022-10-03T14:38:33.106Z,1.60
2022-10-03T14:41:06.059Z,0.90
2022-10-03T14:43:41.311Z,1.60
2022-10-03T14:46:11.607Z,1.30
2022-10-03T14:48:49.065Z,1.47
2022-10-03T14:51:27.776Z,1.37
2022-10-03T14:54:21.142Z,1.80
2022-10-03T14:56:54.619Z,1.77
2022-10-03T14:59:32.060Z,2.07
2022-10-03T15:02:04.652Z,1.30
2022-10-03T15:04:38.119Z,1.40
2022-10-03T15:07:08.790Z,1.10
2022-10-03T15:09:44.750Z,1.35
2022-10-03T15:12:29.013Z,1.53
2022-10-03T15:15:10.570Z,1.43
2022-10-03T15:17:52.122Z,1.50
2022-10-03T15:20:31.333Z,2.03
2022-10-03T15:23:02.746Z,1.90
2022-10-03T15:25:38.061Z,2.05
2022-10-03T15:31:00.718Z,1.87
2022-10-03T15:33:33.228Z,1.47
2022-10-03T15:36:12.151Z,1.40
2022-10-03T15:38:44.563Z,1.57
2022-10-03T15:41:17.108Z,1.70
2022-10-03T15:43:56.923Z,1.50
2022-10-03T15:46:44.518Z,1.92
2022-10-03T15:49:30.283Z,1.63
2022-10-03T15:52:03.310Z,1.73
2022-10-03T15:54:37.479Z,1.97
2022-10-03T15:57:08.870Z,2.00
2022-10-03T15:59:40.679Z,1.90
2022-10-03T16:02:14.659Z,1.72
2022-10-03T16:04:47.708Z,2.10
2022-10-03T16:07:38.543Z,1.95
2022-10-03T16:10:24.787Z,1.60
2022-10-03T16:13:03.958Z,1.82
2022-10-03T16:15:42.285Z,1.60
2022-10-03T16:18:20.988Z,1.57
2022-10-03T16:20:59.741Z,1.80
2022-10-03T16:23:36.572Z,1.50
2022-10-03T16:26:10.809Z,1.90
2022-10-03T16:28:52.142Z,1.50
2022-10-03T16:31:29.912Z,1.90
2022-10-03T16:34:02.738Z,2.53
2022-10-03T16:36:35.525Z,1.70
2022-10-03T16:39:06.821Z,1.77
2022-10-03T16:41:40.693Z,2.52
2022-10-03T16:44:38.436Z,1.98
2022-10-03T16:47:10.856Z,1.80
2022-10-03T16:50:07.252Z,1.70
2022-10-03T16:52:40.210Z,2.70
2022-10-03T16:55:15.503Z,2.53
2022-10-03T16:57:54.339Z,2.30
2022-10-03T17:00:36.025Z,2.52
2022-10-03T17:03:08.731Z,3.50
2022-10-03T17:05:41.472Z,3.00
2022-10-03T17:08:40.034Z,2.70
2022-10-03T17:10:48.188Z,3.30
2022-10-03T17:13:21.293Z,3.30
2022-10-03T17:15:54.007Z,2.45
2022-10-03T17:18:26.741Z,2.53
2022-10-03T17:21:11.506Z,2.57
2022-10-03T17:23:47.320Z,2.75
2022-10-03T17:26:33.151Z,2.90
2022-10-03T17:29:11.161Z,2.80
2022-10-03T17:32:05.853Z,3.07
2022-10-03T17:34:41.258Z,3.03
2022-10-03T17:37:20.822Z,2.87
2022-10-03T17:39:59.315Z,3.43
2022-10-03T17:42:32.169Z,6.03
2022-10-03T17:45:26.648Z,7.97
2022-10-03T17:48:25.071Z,8.13
2022-10-03T17:51:21.751Z,4.77
2022-10-03T17:53:57.688Z,4.03
2022-10-03T17:56:30.056Z,5.28
2022-10-03T17:59:02.902Z,5.20
2022-10-03T18:01:38.918Z,3.97
2022-10-03T18:06:52.056Z,3.92
2022-10-03T18:09:41.545Z,3.90
2022-10-03T18:12:20.480Z,4.78
2022-10-03T18:15:16.095Z,5.63
2022-10-03T18:18:08.137Z,4.83
2022-10-03T18:20:52.510Z,3.20
2022-10-03T18:23:50.071Z,4.10
2022-10-03T18:26:20.900Z,4.30
2022-10-03T18:28:45.361Z,4.03
2022-10-03T18:31:23.415Z,3.37
2022-10-03T18:34:13.872Z,4.27
2022-10-03T18:36:48.474Z,4.10
2022-10-03T18:39:21.123Z,5.70
2022-10-03T18:41:53.980Z,6.53
2022-10-03T18:44:27.029Z,6.87
2022-10-03T18:47:07.077Z,7.05
2022-10-03T18:49:40.136Z,6.67
2022-10-03T18:52:22.998Z,6.28
2022-10-03T18:55:04.240Z,6.87
2022-10-03T18:58:00.243Z,7.60
2022-10-03T19:00:33.873Z,8.03
2022-10-03T19:03:06.716Z,6.50
2022-10-03T19:05:51.311Z,7.30
2022-10-03T19:08:29.849Z,6.93
2022-10-03T19:11:32.636Z,7.10
2022-10-03T19:14:11.101Z,7.17
2022-10-03T19:17:16.616Z,7.00
2022-10-03T19:19:58.778Z,8.40
2022-10-03T19:22:32.344Z,8.63
2022-10-03T19:25:04.822Z,8.30
2022-10-03T19:27:43.535Z,8.53
2022-10-03T19:30:24.231Z,7.78
2022-10-03T19:33:02.453Z,8.43
2022-10-03T19:35:33.174Z,8.45
2022-10-03T19:38:17.377Z,8.70
2022-10-03T19:41:04.930Z,9.27
2022-10-03T19:43:50.959Z,9.67
2022-10-03T19:46:34.943Z,9.60
2022-10-03T19:49:19.627Z,8.47
2022-10-03T19:51:50.309Z,8.47
2022-10-03T19:54:32.006Z,8.95
2022-10-03T19:57:05.647Z,7.35
2022-10-03T19:59:46.823Z,7.27
2022-10-03T20:02:18.189Z,6.70
2022-10-03T20:04:51.262Z,7.37
2022-10-03T20:07:29.564Z,7.70
2022-10-03T20:10:02.705Z,6.67
2022-10-03T20:12:34.211Z,6.57
2022-10-03T20:15:06.993Z,6.63
2022-10-03T20:17:38.766Z,7.07
2022-10-03T20:20:13.183Z,6.62
2022-10-03T20:22:43.102Z,6.37
2022-10-03T20:25:30.518Z,5.62
2022-10-03T20:28:02.489Z,5.33
2022-10-03T20:30:52.627Z,6.07
2022-10-03T20:33:25.437Z,5.40
2022-10-03T20:36:07.215Z,5.07
2022-10-03T20:38:51.742Z,5.95
2022-10-03T20:41:32.582Z,5.80
2022-10-03T20:44:08.249Z,5.83
2022-10-03T20:46:50.163Z,5.97
2022-10-03T20:49:25.959Z,6.42
2022-10-03T20:52:01.079Z,6.97
2022-10-03T20:54:39.447Z,7.67
2022-10-03T20:57:29.813Z,5.92
2022-10-03T21:00:20.618Z,6.80
2022-10-03T21:02:56.103Z,6.33
2022-10-03T21:05:28.784Z,7.20
2022-10-03T21:08:07.150Z,7.43
2022-10-03T21:10:40.288Z,6.80
2022-10-03T21:13:15.969Z,6.60
2022-10-03T21:15:58.024Z,7.08
2022-10-03T21:18:33.615Z,6.97
2022-10-03T21:21:15.051Z,6.77
2022-10-03T21:24:08.667Z,6.67
2022-10-03T21:26:46.817Z,6.85
2022-10-03T21:29:19.854Z,6.83
2022-10-03T21:32:04.710Z,7.33
2022-10-03T21:34:51.952Z,8.90
2022-10-03T21:37:40.675Z,8.33
2022-10-03T21:40:22.090Z,7.42
2022-10-03T21:42:55.030Z,7.63
2022-10-03T21:45:42.404Z,6.10
2022-10-03T21:48:19.658Z,6.80
2022-10-03T21:50:55.581Z,6.62
2022-10-03T21:53:47.641Z,6.12
2022-10-03T21:56:22.570Z,8.33
2022-10-03T21:59:01.016Z,7.67
2022-10-03T22:01:34.113Z,7.85
2022-10-03T22:04:12.653Z,8.40
2022-10-03T22:09:33.390Z,7.85
2022-10-03T22:12:06.161Z,7.47
2022-10-03T22:14:42.050Z,7.95
2022-10-03T22:17:20.457Z,7.83
2022-10-03T22:19:54.973Z,7.85
2022-10-03T22:22:42.452Z,8.40
2022-10-03T22:25:48.073Z,9.18
2022-10-03T22:28:26.581Z,8.87
2022-10-03T22:31:11.300Z,9.33
2022-10-03T22:33:46.515Z,8.17
2022-10-03T22:36:19.572Z,8.18
2022-10-03T22:38:52.428Z,8.10
2022-10-03T22:41:25.223Z,7.60
2022-10-03T22:43:57.728Z,7.53
2022-10-03T22:46:30.512Z,8.70
2022-10-03T22:49:18.165Z,9.00
2022-10-03T22:51:50.493Z,8.40
2022-10-03T22:54:20.311Z,8.25
2022-10-03T22:56:55.583Z,9.07
2022-10-03T22:59:33.781Z,8.07
2022-10-03T23:02:06.167Z,9.00
2022-10-03T23:04:47.796Z,8.30
2022-10-03T23:07:26.811Z,7.97
2022-10-03T23:10:02.438Z,7.85
2022-10-03T23:12:35.090Z,7.43
2022-10-03T23:15:07.691Z,7.87
2022-10-03T23:17:55.437Z,7.80
2022-10-03T23:20:47.128Z,7.60
2022-10-03T23:23:26.292Z,8.60
2022-10-03T23:26:32.080Z,8.30
2022-10-03T23:29:13.872Z,8.07
2022-10-03T23:32:04.475Z,8.53
2022-10-03T23:34:37.558Z,8.08
2022-10-03T23:37:16.326Z,7.73
2022-10-03T23:39:57.902Z,7.60
2022-10-03T23:42:43.074Z,7.92
2022-10-03T23:45:21.129Z,8.07
2022-10-03T23:48:10.047Z,7.70
2022-10-03T23:50:51.254Z,7.97
2022-10-03T23:53:27.371Z,7.20
2022-10-03T23:55:59.735Z,8.73
2022-10-03T23:58:32.310Z,8.95
